Hancock, Maryland
Current Conditions -  °F | °C
As of 1:53 PM on Monday 20 Oct 2014 (Local Time) from KMRB Reporting Station
Clear Clear  
Wind Chill: 60°   Ceiling: Unl
Heat Index: 60°   Visibility: 10mi
Dew Point: 37°   Wind: 5mph
Humidity: 42%   Direction: NA
Pressure: 29.97"   Gusts: NA
Location:  39.7°N, 78.18°W
Report Text: KMRB 201753Z VRB04KT 10SM CLR 16/03 A2997 RMK AO2 SLP150 T01560028 10161 20022 58032
Loading
Personal Weather Stations






























Interactive Weather Map
Tropical Storm Tracking
New forecast layout! Learn more

10-Day Weather Forecast

Advertisements
Track Severe Weather on mobile